createdAt,value
2023-05-02T00:05:22.474Z,11.60
2023-05-02T00:11:24.477Z,11.40
2023-05-02T00:17:26.518Z,11.30
2023-05-02T00:23:28.781Z,11.30
2023-05-02T00:29:30.868Z,11.30
2023-05-02T00:35:33.674Z,11.30
2023-05-02T00:41:35.640Z,11.20
2023-05-02T00:47:37.804Z,11.10
2023-05-02T00:53:40.663Z,11.10
2023-05-02T00:59:42.634Z,11.00
2023-05-02T01:06:05.510Z,11.00
2023-05-02T01:12:32.871Z,11.00
2023-05-02T01:18:38.702Z,11.00
2023-05-02T01:24:48.114Z,11.00
2023-05-02T01:30:51.805Z,11.00
2023-05-02T01:36:55.648Z,11.00
2023-05-02T01:42:58.737Z,11.00
2023-05-02T01:49:04.090Z,10.90
2023-05-02T01:55:11.218Z,10.70
2023-05-02T02:01:15.027Z,10.60
2023-05-02T02:07:16.973Z,10.50
2023-05-02T02:13:26.739Z,10.50
2023-05-02T02:19:30.734Z,10.50
2023-05-02T02:25:34.719Z,10.50
2023-05-02T02:31:39.071Z,10.40
2023-05-02T02:38:16.782Z,10.50
2023-05-02T02:44:26.130Z,10.60
2023-05-02T02:50:44.245Z,10.70
2023-05-02T02:56:47.527Z,10.60
2023-05-02T03:02:49.668Z,10.60
2023-05-02T03:08:51.501Z,10.70
2023-05-02T03:15:08.243Z,10.70
2023-05-02T03:21:11.146Z,10.70
2023-05-02T03:27:13.459Z,10.80
2023-05-02T03:33:17.423Z,10.90
2023-05-02T03:39:21.657Z,11.00
2023-05-02T03:45:24.337Z,10.90
2023-05-02T03:51:27.817Z,10.90
2023-05-02T03:57:32.137Z,11.00
2023-05-02T04:03:34.996Z,11.00
2023-05-02T04:09:37.752Z,11.00
2023-05-02T04:15:45.741Z,11.10
2023-05-02T04:21:49.591Z,11.10
2023-05-02T04:27:52.494Z,11.20
2023-05-02T04:33:57.176Z,11.20
2023-05-02T04:40:01.979Z,11.30
2023-05-02T04:46:06.183Z,11.30
2023-05-02T04:52:12.472Z,11.40
2023-05-02T04:58:14.472Z,11.30
2023-05-02T05:04:17.673Z,11.40
2023-05-02T05:10:19.866Z,11.50
2023-05-02T05:16:22.432Z,11.60
2023-05-02T05:22:25.462Z,11.60
2023-05-02T05:28:27.602Z,11.60
2023-05-02T05:34:29.542Z,11.70
2023-05-02T05:40:33.968Z,11.70
2023-05-02T05:46:36.200Z,11.80
2023-05-02T05:52:39.649Z,11.80
2023-05-02T05:58:42.730Z,11.90
2023-05-02T06:04:47.025Z,11.90
2023-05-02T06:10:51.390Z,12.00
2023-05-02T06:16:53.326Z,11.90
2023-05-02T06:22:55.272Z,12.10
2023-05-02T06:28:57.339Z,12.40
2023-05-02T06:34:59.225Z,12.70
2023-05-02T06:41:01.088Z,12.70
2023-05-02T06:47:04.766Z,12.60
2023-05-02T06:53:06.649Z,12.40
2023-05-02T06:59:08.718Z,12.40
2023-05-02T07:05:10.689Z,12.50
2023-05-02T07:11:12.499Z,12.40
2023-05-02T07:17:14.466Z,12.50
2023-05-02T07:23:16.280Z,12.40
2023-05-02T07:29:18.156Z,12.40
2023-05-02T07:35:19.942Z,12.30
2023-05-02T07:41:22.101Z,12.10
2023-05-02T07:47:23.905Z,11.90
2023-05-02T07:53:25.757Z,11.30
2023-05-02T07:59:27.624Z,11.00
2023-05-02T08:05:29.381Z,10.90
2023-05-02T08:11:31.202Z,10.70
2023-05-02T08:17:33.034Z,10.70
2023-05-02T08:23:34.920Z,10.70
2023-05-02T08:29:36.642Z,10.80
2023-05-02T08:35:38.353Z,10.90
2023-05-02T08:41:40.251Z,11.00
2023-05-02T08:47:42.562Z,11.20
2023-05-02T08:53:45.325Z,11.70
2023-05-02T08:59:48.676Z,12.00
2023-05-02T09:05:58.705Z,12.10
2023-05-02T09:12:01.013Z,12.50
2023-05-02T09:18:03.272Z,12.70
2023-05-02T09:24:16.979Z,13.10
2023-05-02T09:30:23.593Z,13.50
2023-05-02T09:36:25.522Z,13.40
2023-05-02T09:42:33.520Z,13.20
2023-05-02T09:48:57.950Z,13.00
2023-05-02T09:54:59.881Z,12.80
2023-05-02T10:01:02.060Z,12.80
2023-05-02T10:07:05.160Z,13.10
2023-05-02T10:13:08.898Z,13.30
2023-05-02T10:19:13.682Z,13.60
2023-05-02T10:25:15.950Z,13.50
2023-05-02T10:31:18.814Z,13.40
2023-05-02T10:37:21.138Z,13.20
2023-05-02T10:43:25.437Z,13.40
2023-05-02T10:49:27.418Z,13.60
2023-05-02T10:55:29.854Z,13.50
2023-05-02T11:01:34.233Z,13.50
2023-05-02T11:07:37.664Z,12.80
2023-05-02T11:13:51.782Z,12.50
2023-05-02T11:19:56.622Z,12.30
2023-05-02T11:26:01.098Z,12.10
2023-05-02T11:32:03.136Z,12.20
2023-05-02T11:38:08.655Z,12.00
2023-05-02T11:44:10.541Z,11.70
2023-05-02T11:50:12.749Z,11.80
2023-05-02T11:56:14.684Z,11.80
2023-05-02T12:02:16.546Z,11.70
2023-05-02T12:08:23.946Z,11.70
2023-05-02T12:14:33.578Z,11.80
2023-05-02T12:20:36.596Z,11.60
2023-05-02T12:26:38.376Z,11.10
2023-05-02T12:32:45.407Z,11.10
2023-05-02T12:38:59.707Z,11.10
2023-05-02T12:45:01.849Z,11.10
2023-05-02T12:51:03.786Z,11.40
2023-05-02T12:57:05.659Z,11.70
2023-05-02T13:03:09.960Z,11.60
2023-05-02T13:09:11.855Z,11.80
2023-05-02T13:15:14.402Z,11.70
2023-05-02T13:21:16.415Z,11.70
2023-05-02T13:27:18.722Z,12.00
2023-05-02T13:33:21.021Z,12.40
2023-05-02T13:39:22.832Z,12.60
2023-05-02T13:45:24.626Z,12.90
2023-05-02T13:51:27.378Z,12.90
2023-05-02T13:57:29.219Z,13.00
2023-05-02T14:03:31.166Z,13.00
2023-05-02T14:09:33.046Z,13.30
2023-05-02T14:15:34.895Z,13.40
2023-05-02T14:21:38.612Z,12.80
2023-05-02T14:27:41.802Z,12.10
2023-05-02T14:33:43.703Z,11.90
2023-05-02T14:39:47.456Z,11.80
2023-05-02T14:45:50.388Z,12.20
2023-05-02T14:51:52.683Z,12.30
2023-05-02T14:57:57.868Z,12.70
2023-05-02T15:04:06.460Z,13.00
2023-05-02T15:10:10.447Z,14.30
2023-05-02T15:16:12.592Z,15.00
2023-05-02T16:56:34.902Z,12.30
2023-05-02T17:02:38.532Z,12.10
2023-05-02T17:08:40.737Z,12.10
2023-05-02T17:14:43.500Z,11.80
2023-05-02T17:20:46.734Z,11.80
2023-05-02T17:26:49.347Z,11.60
2023-05-02T17:32:52.087Z,11.60
2023-05-02T17:38:54.179Z,11.40
2023-05-02T17:44:56.171Z,11.20
2023-05-02T17:51:02.666Z,11.00
2023-05-02T17:57:04.726Z,10.70
2023-05-02T18:03:08.191Z,10.50
2023-05-02T18:09:10.268Z,10.30
2023-05-02T18:15:12.209Z,10.20
2023-05-02T18:21:21.505Z,10.10
2023-05-02T18:27:23.355Z,9.90
2023-05-02T18:33:25.191Z,9.90
2023-05-02T18:39:27.756Z,9.80
2023-05-02T18:45:29.631Z,9.80
2023-05-02T18:51:31.504Z,9.80
2023-05-02T18:57:36.044Z,9.70
2023-05-02T19:03:38.187Z,9.70
2023-05-02T19:09:40.427Z,9.70
2023-05-02T19:15:42.403Z,9.70
2023-05-02T19:21:46.804Z,9.70
2023-05-02T19:27:49.866Z,9.60
2023-05-02T19:33:52.012Z,9.50
2023-05-02T19:39:54.043Z,9.50
2023-05-02T19:45:56.956Z,9.40
2023-05-02T19:51:58.838Z,9.30
2023-05-02T19:58:02.018Z,9.20
2023-05-02T20:04:03.938Z,9.10
2023-05-02T20:10:06.601Z,8.90
2023-05-02T20:16:08.814Z,8.80
2023-05-02T20:22:10.882Z,8.70
2023-05-02T20:28:53.633Z,8.60
2023-05-02T20:35:33.174Z,8.60
2023-05-02T20:41:36.136Z,8.50
2023-05-02T20:47:38.322Z,8.30
2023-05-02T20:53:40.193Z,8.30
2023-05-02T20:59:43.319Z,8.20
2023-05-02T21:05:45.733Z,8.30
2023-05-02T21:11:47.817Z,8.20
2023-05-02T21:17:49.948Z,8.10
2023-05-02T21:23:51.774Z,8.10
2023-05-02T21:29:53.552Z,8.00
2023-05-02T21:35:56.943Z,7.90
2023-05-02T21:41:58.752Z,7.90
2023-05-02T21:48:01.557Z,7.90
2023-05-02T21:54:03.629Z,7.80
2023-05-02T22:00:06.394Z,7.80
2023-05-02T22:06:08.286Z,7.70
2023-05-02T22:12:10.326Z,7.60
2023-05-02T22:18:13.850Z,7.60
2023-05-02T22:24:16.683Z,7.50
2023-05-02T22:30:18.467Z,7.20
2023-05-02T22:36:20.639Z,7.00
2023-05-02T22:42:23.897Z,6.60
2023-05-02T22:48:25.711Z,6.10
2023-05-02T22:54:27.604Z,5.70
2023-05-02T23:00:29.451Z,5.40
2023-05-02T23:06:31.582Z,5.10
2023-05-02T23:12:33.392Z,4.90
2023-05-02T23:18:35.182Z,4.70
2023-05-02T23:24:37.074Z,4.40
2023-05-02T23:30:40.229Z,4.20
2023-05-02T23:36:42.276Z,4.10
2023-05-02T23:42:44.340Z,3.90
2023-05-02T23:48:46.224Z,3.70
2023-05-02T23:54:48.767Z,3.60
